Time;durP1;ratioP1;P1;durP2;ratioP2;P2;SDS_P1;SDS_P2;PMS_P1;PMS_P2;Temp;Humidity;BMP_temperature;BMP_pressure;BME280_temperature;BME280_humidity;BME280_pressure;Samples;Min_cycle;Max_cycle;Signal;HPM_P1;HPM_P2
2023/08/21 00:00:44;;;;;;;2.65;1.30;;;22.20;68.80;;;;;;5058978;28;20036;-68
2023/08/21 00:03:10;;;;;;;2.75;1.17;;;22.20;69.60;;;;;;5060034;28;20463;-70
2023/08/21 00:05:35;;;;;;;4.93;1.35;;;22.10;69.10;;;;;;5059509;28;20036;-68
2023/08/21 00:08:01;;;;;;;2.63;0.90;;;22.00;69.40;;;;;;5051797;28;20036;-70
2023/08/21 00:10:26;;;;;;;3.58;1.15;;;22.00;69.60;;;;;;5065740;28;20097;-68
2023/08/21 00:12:52;;;;;;;2.50;1.02;;;22.00;69.60;;;;;;5057351;28;20028;-69
2023/08/21 00:15:18;;;;;;;2.15;1.10;;;21.90;70.40;;;;;;5062448;28;20336;-69
2023/08/21 00:17:43;;;;;;;3.63;1.30;;;21.90;70.10;;;;;;5054280;28;20066;-68
2023/08/21 00:20:09;;;;;;;3.47;1.10;;;21.80;70.30;;;;;;5065661;28;20546;-69
2023/08/21 00:22:36;;;;;;;2.40;1.20;;;21.80;70.40;;;;;;5060190;28;20064;-68
2023/08/21 00:25:02;;;;;;;2.58;1.10;;;21.90;70.40;;;;;;5057234;28;20525;-68
2023/08/21 00:27:27;;;;;;;3.42;1.27;;;21.90;70.30;;;;;;5052649;28;20032;-68
2023/08/21 00:29:53;;;;;;;3.50;1.38;;;21.90;70.50;;;;;;5056285;28;20090;-68
2023/08/21 00:32:18;;;;;;;1.88;0.90;;;21.80;70.70;;;;;;5064044;28;20090;-68
2023/08/21 00:34:44;;;;;;;1.80;1.00;;;21.80;70.90;;;;;;5067117;28;20017;-68
2023/08/21 00:37:10;;;;;;;3.97;1.15;;;21.80;70.90;;;;;;5059110;28;20512;-67
2023/08/21 00:39:36;;;;;;;2.20;1.00;;;21.80;70.80;;;;;;5061503;28;20422;-68
2023/08/21 00:42:02;;;;;;;2.92;1.23;;;21.80;70.90;;;;;;5066522;28;20103;-68
2023/08/21 00:44:27;;;;;;;1.88;1.10;;;21.90;70.80;;;;;;5064309;28;20036;-68
2023/08/21 00:46:53;;;;;;;3.25;1.10;;;21.80;70.70;;;;;;5059377;28;20040;-68
2023/08/21 00:49:20;;;;;;;3.70;1.20;;;21.90;70.80;;;;;;5058881;28;20021;-68
2023/08/21 00:51:47;;;;;;;3.08;1.10;;;21.90;70.60;;;;;;5065051;28;20028;-67
2023/08/21 00:54:12;;;;;;;3.10;1.15;;;22.00;70.50;;;;;;5069589;28;20111;-68
2023/08/21 00:56:38;;;;;;;2.80;1.00;;;22.00;70.50;;;;;;5059450;28;20150;-69
2023/08/21 00:59:04;;;;;;;2.25;0.98;;;22.00;70.40;;;;;;5066620;28;20033;-70
2023/08/21 01:01:30;;;;;;;3.08;1.10;;;22.10;70.40;;;;;;5064110;28;20020;-69
2023/08/21 01:03:55;;;;;;;2.92;1.13;;;22.00;70.30;;;;;;5052855;28;20119;-69
2023/08/21 01:06:21;;;;;;;3.63;1.67;;;22.10;70.30;;;;;;5051745;28;20167;-68
2023/08/21 01:08:59;;;;;;;1.65;1.10;;;22.10;70.40;;;;;;5061030;28;20032;-68
2023/08/21 01:11:43;;;;;;;3.72;1.00;;;22.00;70.40;;;;;;5067677;28;20028;-69
2023/08/21 01:14:13;;;;;;;2.40;0.95;;;22.00;70.80;;;;;;5058656;28;20024;-69
2023/08/21 01:16:40;;;;;;;2.22;1.17;;;22.00;70.90;;;;;;5062647;28;20075;-68
2023/08/21 01:19:14;;;;;;;1.83;1.02;;;22.00;70.80;;;;;;5060978;28;20475;-69
2023/08/21 01:21:40;;;;;;;3.25;1.20;;;22.00;70.80;;;;;;5057686;28;20017;-68
2023/08/21 01:24:06;;;;;;;3.08;1.10;;;21.90;70.80;;;;;;5057311;28;20063;-68
2023/08/21 01:26:31;;;;;;;2.22;1.10;;;21.90;70.90;;;;;;5055846;28;20037;-68
2023/08/21 01:28:57;;;;;;;3.40;1.20;;;21.80;71.00;;;;;;5057494;28;20081;-68
2023/08/21 01:31:30;;;;;;;3.10;1.10;;;21.80;71.10;;;;;;5051449;28;20091;-69
2023/08/21 01:34:00;;;;;;;2.08;0.90;;;21.80;71.20;;;;;;5051511;28;20021;-68
2023/08/21 01:36:26;;;;;;;2.88;0.90;;;21.90;71.10;;;;;;5050655;28;20025;-69
2023/08/21 01:38:52;;;;;;;2.97;1.02;;;21.80;71.10;;;;;;5056065;28;20020;-68
2023/08/21 01:41:18;;;;;;;2.55;1.25;;;21.80;71.10;;;;;;5061970;28;20399;-67
2023/08/21 01:43:43;;;;;;;1.83;0.90;;;21.80;71.10;;;;;;5054763;28;20132;-67
2023/08/21 01:46:10;;;;;;;2.72;1.13;;;21.80;71.10;;;;;;5050367;28;20043;-68
2023/08/21 01:48:35;;;;;;;2.85;1.13;;;21.70;71.30;;;;;;5050631;28;20089;-69
2023/08/21 01:51:02;;;;;;;2.40;1.00;;;21.70;71.50;;;;;;5053923;28;20479;-68
2023/08/21 01:53:27;;;;;;;2.65;1.05;;;21.70;71.70;;;;;;5068962;28;20040;-69
2023/08/21 01:55:53;;;;;;;2.75;1.10;;;21.60;71.80;;;;;;5050905;28;20407;-69
2023/08/21 01:58:19;;;;;;;3.38;1.10;;;21.50;72.00;;;;;;5049495;28;20120;-68
2023/08/21 02:00:47;;;;;;;3.45;1.13;;;21.50;72.20;;;;;;5063711;28;20033;-68
2023/08/21 02:03:13;;;;;;;3.40;1.10;;;21.40;72.40;;;;;;5069167;28;20380;-69
2023/08/21 02:05:40;;;;;;;2.63;1.20;;;21.40;72.40;;;;;;5064968;28;20040;-68
2023/08/21 02:08:06;;;;;;;1.80;1.02;;;21.40;72.40;;;;;;5051920;28;20028;-68
2023/08/21 02:10:32;;;;;;;2.03;1.10;;;21.40;72.40;;;;;;5053491;28;20052;-69
2023/08/21 02:12:58;;;;;;;2.35;1.08;;;21.40;72.50;;;;;;5056000;28;20025;-69
2023/08/21 02:15:23;;;;;;;3.65;1.10;;;21.30;72.60;;;;;;5053669;28;20066;-69
2023/08/21 02:17:49;;;;;;;2.92;1.50;;;21.30;72.70;;;;;;5052821;28;20032;-69
2023/08/21 02:20:14;;;;;;;2.45;1.02;;;21.30;72.50;;;;;;5062654;28;20387;-68
2023/08/21 02:22:40;;;;;;;3.50;1.13;;;21.40;72.50;;;;;;5058026;28;20475;-67
2023/08/21 02:25:06;;;;;;;2.58;1.10;;;21.40;72.50;;;;;;5060801;28;20407;-67
2023/08/21 02:27:31;;;;;;;2.88;1.27;;;21.30;72.50;;;;;;5065439;28;20047;-68
2023/08/21 02:29:57;;;;;;;2.92;1.10;;;21.30;72.50;;;;;;5059188;28;20065;-68
2023/08/21 02:32:22;;;;;;;2.10;1.00;;;21.30;72.60;;;;;;5055998;28;20102;-69
2023/08/21 02:34:48;;;;;;;2.30;1.00;;;21.30;72.60;;;;;;5058485;28;20583;-68
2023/08/21 02:37:13;;;;;;;2.00;1.00;;;21.30;72.80;;;;;;5060910;28;20017;-69
2023/08/21 02:39:39;;;;;;;3.65;1.27;;;21.30;72.70;;;;;;5059328;28;20083;-71
2023/08/21 02:42:05;;;;;;;2.90;1.23;;;21.40;72.50;;;;;;5060787;28;20136;-70
2023/08/21 02:44:30;;;;;;;2.78;1.30;;;21.40;72.40;;;;;;5060029;28;20423;-68
2023/08/21 02:46:56;;;;;;;3.25;1.00;;;21.40;72.30;;;;;;5063496;28;20098;-67
2023/08/21 02:49:21;;;;;;;2.65;1.20;;;21.40;72.40;;;;;;5060640;28;20024;-68
2023/08/21 02:51:47;;;;;;;2.95;1.00;;;21.40;72.40;;;;;;5062964;28;20041;-69
2023/08/21 02:54:13;;;;;;;3.20;1.20;;;21.40;72.40;;;;;;5053124;28;20048;-69
2023/08/21 02:56:38;;;;;;;2.63;1.15;;;21.40;72.50;;;;;;5067460;28;20028;-68
2023/08/21 02:59:04;;;;;;;1.75;1.00;;;21.40;72.60;;;;;;5063368;28;20027;-68
2023/08/21 03:01:29;;;;;;;3.00;1.02;;;21.40;72.60;;;;;;5066208;28;20099;-70
2023/08/21 03:03:55;;;;;;;3.20;1.33;;;21.40;72.70;;;;;;5062623;28;20028;-69
2023/08/21 03:06:21;;;;;;;2.58;1.10;;;21.40;72.60;;;;;;5069412;28;20473;-68
2023/08/21 03:08:46;;;;;;;3.38;1.20;;;21.50;72.50;;;;;;5069061;28;20032;-68
2023/08/21 03:11:12;;;;;;;1.88;0.80;;;21.40;72.40;;;;;;5059753;28;20054;-68
2023/08/21 03:13:38;;;;;;;3.38;1.00;;;21.40;72.40;;;;;;5056652;28;20544;-69
2023/08/21 03:16:04;;;;;;;2.72;1.08;;;21.40;72.30;;;;;;5067029;28;20055;-68
2023/08/21 03:18:31;;;;;;;2.33;1.08;;;21.40;72.40;;;;;;5066279;28;20128;-67
2023/08/21 03:20:57;;;;;;;2.05;0.90;;;21.40;72.50;;;;;;5060245;28;20491;-66
2023/08/21 03:23:23;;;;;;;2.42;1.00;;;21.40;72.40;;;;;;5062196;28;20029;-67
2023/08/21 03:25:51;;;;;;;5.25;1.17;;;21.40;72.50;;;;;;5064905;28;20033;-69
2023/08/21 03:28:17;;;;;;;2.28;1.10;;;21.40;72.50;;;;;;5066449;28;20012;-67
2023/08/21 03:30:42;;;;;;;1.77;1.05;;;21.40;72.50;;;;;;5060754;28;20037;-69
2023/08/21 03:33:08;;;;;;;2.53;1.20;;;21.40;72.40;;;;;;5071176;28;20028;-66
2023/08/21 03:35:34;;;;;;;2.95;1.00;;;21.40;72.30;;;;;;5061235;28;20151;-68
2023/08/21 03:37:59;;;;;;;1.85;0.90;;;21.40;72.20;;;;;;5071265;28;20027;-71
2023/08/21 03:40:25;;;;;;;1.85;1.00;;;21.50;72.20;;;;;;5070347;28;20452;-70
2023/08/21 03:42:50;;;;;;;2.60;1.05;;;21.50;72.00;;;;;;5056164;28;20025;-70
2023/08/21 03:45:16;;;;;;;1.67;1.00;;;21.50;72.00;;;;;;5050034;28;20060;-68
2023/08/21 03:47:41;;;;;;;4.10;1.17;;;21.40;72.10;;;;;;5071194;28;20040;-69
2023/08/21 03:50:07;;;;;;;2.00;1.10;;;21.40;72.10;;;;;;5055558;28;20025;-70
2023/08/21 03:52:33;;;;;;;4.05;1.13;;;21.40;72.10;;;;;;5070041;28;20029;-71
2023/08/21 03:54:59;;;;;;;4.32;1.00;;;21.40;72.00;;;;;;5068258;28;20772;-70
2023/08/21 03:57:24;;;;;;;4.03;1.30;;;21.40;71.90;;;;;;5058098;28;20025;-69
2023/08/21 03:59:50;;;;;;;3.08;1.10;;;21.40;71.80;;;;;;5055461;28;20108;-69
2023/08/21 04:02:15;;;;;;;3.03;1.40;;;21.40;71.80;;;;;;5052141;28;20025;-70
2023/08/21 04:04:41;;;;;;;2.35;0.98;;;21.40;71.80;;;;;;5064785;28;20086;-70
2023/08/21 04:07:06;;;;;;;3.72;1.23;;;21.40;71.80;;;;;;5054582;28;20025;-70
2023/08/21 04:09:32;;;;;;;3.53;1.20;;;21.30;71.80;;;;;;5062141;28;20024;-70
2023/08/21 04:11:57;;;;;;;3.25;1.00;;;21.30;71.90;;;;;;5065143;28;20510;-70
2023/08/21 04:14:23;;;;;;;2.35;1.02;;;21.30;71.90;;;;;;5056032;28;20025;-69
2023/08/21 04:16:48;;;;;;;2.70;0.90;;;21.20;71.90;;;;;;5061109;28;20029;-70
2023/08/21 04:19:14;;;;;;;3.13;1.23;;;21.20;72.00;;;;;;5065993;28;20059;-70
2023/08/21 04:21:40;;;;;;;2.63;0.95;;;21.10;72.00;;;;;;5063448;28;20024;-70
2023/08/21 04:24:05;;;;;;;2.70;1.23;;;21.10;72.00;;;;;;5068990;28;20495;-70
2023/08/21 04:26:31;;;;;;;2.20;1.10;;;21.20;71.90;;;;;;5056324;28;20033;-70
2023/08/21 04:28:57;;;;;;;2.15;1.00;;;21.20;71.70;;;;;;5052733;28;20029;-69
2023/08/21 04:31:22;;;;;;;3.38;1.08;;;21.20;71.60;;;;;;5059338;28;20024;-70
2023/08/21 04:33:48;;;;;;;2.75;1.10;;;21.20;71.50;;;;;;5068536;28;20025;-70
2023/08/21 04:36:17;;;;;;;2.60;1.00;;;21.20;71.40;;;;;;5057755;28;20071;-69
2023/08/21 04:38:43;;;;;;;3.08;1.00;;;21.30;71.40;;;;;;5064417;28;20033;-69
2023/08/21 04:41:10;;;;;;;3.33;1.15;;;21.30;71.50;;;;;;5064630;28;20081;-70
2023/08/21 04:43:35;;;;;;;2.42;1.15;;;21.20;71.30;;;;;;5057811;28;20507;-70
2023/08/21 04:46:01;;;;;;;5.13;1.20;;;21.20;71.30;;;;;;5065307;28;20032;-69
2023/08/21 04:48:27;;;;;;;2.78;1.02;;;21.20;71.40;;;;;;5059596;28;20033;-70
2023/08/21 04:50:52;;;;;;;3.58;1.00;;;21.30;71.40;;;;;;5055069;28;20135;-69
2023/08/21 04:53:18;;;;;;;2.75;1.08;;;21.30;71.30;;;;;;5062085;28;20096;-71
2023/08/21 04:55:43;;;;;;;3.83;1.20;;;21.30;71.20;;;;;;5058091;28;20510;-69
2023/08/21 04:58:10;;;;;;;3.70;1.13;;;21.30;71.20;;;;;;5060075;28;20017;-71
2023/08/21 05:00:35;;;;;;;3.58;1.42;;;21.30;71.20;;;;;;5064497;28;20035;-70
2023/08/21 05:03:01;;;;;;;2.80;1.10;;;21.40;71.20;;;;;;5066095;28;20029;-70
2023/08/21 05:05:27;;;;;;;2.75;1.25;;;21.40;71.20;;;;;;5061742;28;20498;-69
2023/08/21 05:07:53;;;;;;;3.97;1.20;;;21.40;71.40;;;;;;5065155;28;20055;-69
2023/08/21 05:10:19;;;;;;;2.63;1.00;;;21.30;71.40;;;;;;5069338;28;20029;-69
2023/08/21 05:12:45;;;;;;;3.75;1.30;;;21.40;71.20;;;;;;5064776;28;20028;-69
2023/08/21 05:15:11;;;;;;;3.47;1.13;;;21.40;71.00;;;;;;5064257;28;20025;-70
2023/08/21 05:17:37;;;;;;;2.20;0.98;;;21.40;70.80;;;;;;5056709;28;20045;-70
2023/08/21 05:20:03;;;;;;;3.42;1.10;;;21.50;70.80;;;;;;5065295;28;20025;-69
2023/08/21 05:22:29;;;;;;;2.92;1.20;;;21.50;70.70;;;;;;5070243;28;20104;-69
2023/08/21 05:24:54;;;;;;;4.20;1.20;;;21.50;70.70;;;;;;5057396;28;20104;-70
2023/08/21 05:27:20;;;;;;;2.85;1.20;;;21.50;70.60;;;;;;5068303;28;20028;-70
2023/08/21 05:29:46;;;;;;;3.35;1.20;;;21.60;70.50;;;;;;5066863;28;20040;-69
2023/08/21 05:32:12;;;;;;;2.92;1.02;;;21.60;70.30;;;;;;5059426;28;20032;-71
2023/08/21 05:34:37;;;;;;;3.15;1.20;;;21.60;70.30;;;;;;5061282;28;20031;-68
2023/08/21 05:37:03;;;;;;;2.78;1.02;;;21.60;70.20;;;;;;5063565;28;20025;-69
2023/08/21 05:39:29;;;;;;;4.38;0.95;;;21.70;70.10;;;;;;5056358;28;20043;-70
2023/08/21 05:41:54;;;;;;;2.67;1.00;;;21.80;70.00;;;;;;5067151;28;20036;-70
2023/08/21 05:44:20;;;;;;;2.90;0.95;;;22.40;69.40;;;;;;5062249;28;20093;-68
2023/08/21 05:46:46;;;;;;;2.42;1.00;;;23.00;67.90;;;;;;5058587;28;20028;-68
2023/08/21 05:49:11;;;;;;;3.03;1.02;;;23.30;66.80;;;;;;5058533;28;20055;-68
2023/08/21 05:51:37;;;;;;;2.72;1.10;;;23.40;66.50;;;;;;5058782;28;20025;-69
2023/08/21 05:54:03;;;;;;;3.10;1.17;;;23.30;66.20;;;;;;5064135;28;20032;-68
2023/08/21 05:56:28;;;;;;;3.33;1.23;;;23.10;66.30;;;;;;5058692;28;20030;-70
2023/08/21 05:58:54;;;;;;;3.22;1.17;;;22.90;67.30;;;;;;5066158;28;20028;-69
2023/08/21 06:01:19;;;;;;;3.20;1.40;;;22.70;67.10;;;;;;5065582;28;20046;-71
2023/08/21 06:03:45;;;;;;;2.28;1.27;;;22.50;67.50;;;;;;5063384;28;20120;-71
2023/08/21 06:06:11;;;;;;;2.85;1.35;;;22.40;67.80;;;;;;5060303;28;20025;-69
2023/08/21 06:08:36;;;;;;;4.53;1.50;;;22.40;67.90;;;;;;5063978;28;20025;-68
2023/08/21 06:11:02;;;;;;;3.53;1.67;;;22.70;67.90;;;;;;5066526;28;20035;-69
2023/08/21 06:13:28;;;;;;;5.50;1.90;;;23.50;66.70;;;;;;5055301;28;20025;-71
2023/08/21 06:15:54;;;;;;;3.38;1.55;;;24.70;64.30;;;;;;5062127;28;20021;-70
2023/08/21 06:18:19;;;;;;;3.65;1.40;;;25.80;61.80;;;;;;5067256;28;20100;-69
2023/08/21 06:20:45;;;;;;;2.97;1.48;;;26.50;59.80;;;;;;5064467;28;20037;-69
2023/08/21 06:23:11;;;;;;;3.72;1.48;;;26.90;58.80;;;;;;5057451;28;20061;-70
2023/08/21 06:25:37;;;;;;;3.88;1.63;;;27.20;58.10;;;;;;5059401;28;20031;-70
2023/08/21 06:28:03;;;;;;;3.08;1.20;;;28.00;56.90;;;;;;5049353;28;20108;-69
2023/08/21 06:30:29;;;;;;;2.92;1.10;;;28.50;55.80;;;;;;5052777;28;20029;-70
2023/08/21 06:32:55;;;;;;;4.45;1.45;;;29.20;54.80;;;;;;5062872;28;20498;-70
2023/08/21 06:35:21;;;;;;;2.95;1.05;;;29.60;53.70;;;;;;5063152;28;20410;-69
2023/08/21 06:37:46;;;;;;;3.38;1.15;;;29.90;53.20;;;;;;5057948;28;20025;-70
2023/08/21 06:40:12;;;;;;;2.78;1.10;;;30.10;52.80;;;;;;5061776;28;20025;-70
2023/08/21 06:42:38;;;;;;;3.33;1.23;;;30.40;52.30;;;;;;5061209;28;20020;-69
2023/08/21 06:45:07;;;;;;;3.03;1.00;;;30.30;51.60;;;;;;5068479;28;20391;-69
2023/08/21 06:47:33;;;;;;;2.92;1.10;;;29.50;52.00;;;;;;5061618;28;20107;-70
2023/08/21 06:50:00;;;;;;;2.30;1.10;;;29.20;52.90;;;;;;5064142;28;20166;-70
2023/08/21 06:52:26;;;;;;;2.88;1.23;;;28.90;53.00;;;;;;5055637;28;20029;-70
2023/08/21 06:54:51;;;;;;;2.50;1.00;;;28.90;53.90;;;;;;5062273;28;20049;-70
2023/08/21 06:57:17;;;;;;;4.40;1.23;;;29.30;53.30;;;;;;5053151;28;20020;-69
2023/08/21 06:59:43;;;;;;;3.92;1.05;;;28.80;53.50;;;;;;5058627;28;20032;-70
2023/08/21 07:02:08;;;;;;;4.70;1.30;;;29.40;53.30;;;;;;5054229;28;20036;-69
2023/08/21 07:04:34;;;;;;;2.88;1.23;;;30.20;52.00;;;;;;5060539;28;20024;-69
2023/08/21 07:06:59;;;;;;;5.38;1.42;;;30.70;51.00;;;;;;5056312;28;20035;-69
2023/08/21 07:09:25;;;;;;;3.33;1.10;;;31.10;50.50;;;;;;5062087;28;20039;-70
2023/08/21 07:11:51;;;;;;;4.28;1.35;;;31.30;50.00;;;;;;5061633;28;20108;-68
2023/08/21 07:14:17;;;;;;;3.20;1.15;;;31.60;49.80;;;;;;5059543;28;20094;-70
2023/08/21 07:16:43;;;;;;;3.08;1.10;;;32.00;49.20;;;;;;5058501;28;20025;-70
2023/08/21 07:19:09;;;;;;;3.97;1.40;;;31.90;48.80;;;;;;5066896;28;20029;-69
2023/08/21 07:21:36;;;;;;;3.22;1.13;;;31.70;49.10;;;;;;5063836;28;20025;-70
2023/08/21 07:24:05;;;;;;;4.82;1.00;;;31.90;48.50;;;;;;5067891;28;20024;-69
2023/08/21 07:26:31;;;;;;;2.42;0.98;;;32.30;48.10;;;;;;5066564;28;20031;-70
2023/08/21 07:28:56;;;;;;;3.13;1.10;;;32.80;47.50;;;;;;5065041;28;20037;-70
2023/08/21 07:31:23;;;;;;;2.70;0.95;;;32.60;46.60;;;;;;5064003;28;20035;-70
2023/08/21 07:33:48;;;;;;;2.83;1.00;;;32.20;47.00;;;;;;5057422;28;20119;-70
2023/08/21 07:36:17;;;;;;;4.00;1.10;;;32.40;47.10;;;;;;5061812;28;20527;-71
2023/08/21 07:38:43;;;;;;;3.03;0.98;;;32.40;46.50;;;;;;5068922;28;20070;-70
2023/08/21 07:41:10;;;;;;;2.95;1.17;;;31.60;46.60;;;;;;5066663;28;20024;-70
2023/08/21 07:43:41;;;;;;;3.85;1.25;;;30.60;47.80;;;;;;5061529;28;20063;-71
2023/08/21 07:46:09;;;;;;;2.30;0.88;;;29.70;49.30;;;;;;5064153;28;20040;-70
2023/08/21 07:48:35;;;;;;;3.85;0.90;;;29.00;50.70;;;;;;5063232;28;20021;-71
2023/08/21 07:51:01;;;;;;;2.88;1.10;;;28.40;51.80;;;;;;5060538;28;20036;-70
2023/08/21 07:53:27;;;;;;;2.55;0.82;;;27.90;52.70;;;;;;5058904;28;20043;-71
2023/08/21 07:55:52;;;;;;;3.25;1.05;;;27.60;53.40;;;;;;5059624;28;20035;-71
2023/08/21 07:58:18;;;;;;;4.32;1.05;;;28.00;53.30;;;;;;5063678;28;20035;-69
2023/08/21 08:00:44;;;;;;;3.75;1.25;;;28.00;52.90;;;;;;5055187;28;20036;-70
2023/08/21 08:03:10;;;;;;;2.60;0.88;;;28.10;52.90;;;;;;5063683;28;20090;-71
2023/08/21 08:05:36;;;;;;;3.17;0.95;;;27.90;53.20;;;;;;5060671;28;20391;-69
2023/08/21 08:08:02;;;;;;;3.13;1.00;;;27.60;53.80;;;;;;5060923;28;20036;-70
2023/08/21 08:10:27;;;;;;;3.13;0.98;;;28.10;53.50;;;;;;5060705;28;20036;-70
2023/08/21 08:12:54;;;;;;;3.15;1.00;;;28.50;53.30;;;;;;5061176;28;20016;-70
2023/08/21 08:15:20;;;;;;;5.05;1.20;;;29.50;51.90;;;;;;5059791;28;20013;-70
2023/08/21 08:17:45;;;;;;;4.18;1.23;;;29.00;51.80;;;;;;5060111;28;20039;-69
2023/08/21 08:20:12;;;;;;;3.10;1.20;;;28.40;52.50;;;;;;5061108;28;20024;-69
2023/08/21 08:22:38;;;;;;;3.58;1.00;;;28.00;53.30;;;;;;5058969;28;20025;-69
2023/08/21 08:25:05;;;;;;;5.15;1.10;;;27.80;53.90;;;;;;5058614;28;20506;-69
2023/08/21 08:27:31;;;;;;;3.50;1.00;;;28.40;53.40;;;;;;5061349;28;20546;-70
2023/08/21 08:29:57;;;;;;;2.22;0.88;;;28.50;52.70;;;;;;5058287;28;20108;-69
2023/08/21 08:32:23;;;;;;;4.05;1.15;;;28.20;52.60;;;;;;5058874;28;20032;-70
2023/08/21 08:34:48;;;;;;;2.53;1.30;;;28.00;52.80;;;;;;5062462;28;20083;-69
2023/08/21 08:37:14;;;;;;;3.92;1.27;;;27.70;53.00;;;;;;5061020;28;20024;-70
2023/08/21 08:39:39;;;;;;;3.08;1.00;;;27.50;53.40;;;;;;5060177;28;20025;-69
2023/08/21 08:42:06;;;;;;;2.30;0.90;;;27.50;53.70;;;;;;5071633;28;20039;-70
2023/08/21 08:44:36;;;;;;;4.13;0.93;;;27.50;53.50;;;;;;5060793;28;20024;-69
2023/08/21 08:47:02;;;;;;;1.90;0.98;;;27.50;53.40;;;;;;5063459;28;20027;-71
2023/08/21 08:49:28;;;;;;;2.17;0.85;;;27.40;53.60;;;;;;5066397;28;20047;-68
2023/08/21 08:51:57;;;;;;;3.20;1.20;;;27.30;53.80;;;;;;5062622;28;20380;-69
2023/08/21 08:54:25;;;;;;;4.60;1.00;;;27.20;54.00;;;;;;5059487;28;20116;-68
2023/08/21 08:56:51;;;;;;;3.72;1.33;;;27.40;54.40;;;;;;5058083;28;20028;-69
2023/08/21 08:59:17;;;;;;;3.28;1.05;;;27.50;54.10;;;;;;5056379;28;20408;-68
2023/08/21 09:01:43;;;;;;;5.13;1.30;;;27.70;53.80;;;;;;5061965;28;20093;-68
2023/08/21 09:04:09;;;;;;;4.53;1.20;;;27.60;53.70;;;;;;5061454;28;20028;-68
2023/08/21 09:06:35;;;;;;;3.70;1.10;;;27.60;53.20;;;;;;5060605;28;20109;-69
2023/08/21 09:09:01;;;;;;;2.92;1.20;;;27.30;53.40;;;;;;5059091;28;20036;-67
2023/08/21 09:11:26;;;;;;;2.78;0.95;;;27.40;54.00;;;;;;5060305;28;20028;-69
2023/08/21 09:13:54;;;;;;;3.80;1.02;;;27.40;54.20;;;;;;5057838;28;20048;-69
2023/08/21 09:16:20;;;;;;;3.10;1.20;;;27.40;54.00;;;;;;5060453;28;20031;-69
2023/08/21 09:18:54;;;;;;;2.00;0.98;;;27.40;53.70;;;;;;5062381;28;20523;-68
2023/08/21 09:21:21;;;;;;;4.03;1.10;;;27.40;53.80;;;;;;5059656;28;20020;-69
2023/08/21 09:23:48;;;;;;;2.85;1.05;;;27.40;53.80;;;;;;5063114;28;20033;-70
2023/08/21 09:26:20;;;;;;;2.83;0.80;;;27.40;53.80;;;;;;5062448;28;20016;-67
2023/08/21 09:28:46;;;;;;;2.05;1.00;;;27.30;53.70;;;;;;5064299;28;20046;-70
2023/08/21 09:31:12;;;;;;;2.63;1.10;;;27.30;53.80;;;;;;5064955;28;20601;-69
2023/08/21 09:33:38;;;;;;;2.72;0.90;;;27.40;54.00;;;;;;5063639;28;20033;-68
2023/08/21 09:36:07;;;;;;;1.92;0.90;;;27.60;53.90;;;;;;5061233;28;20028;-69
2023/08/21 09:38:38;;;;;;;3.45;1.00;;;27.70;53.50;;;;;;5067369;28;20012;-69
2023/08/21 09:41:03;;;;;;;2.78;1.13;;;27.70;52.90;;;;;;5064803;28;20029;-69
2023/08/21 09:43:29;;;;;;;2.47;0.90;;;27.70;53.00;;;;;;5065204;28;20073;-70
2023/08/21 09:45:55;;;;;;;2.42;1.00;;;27.60;53.30;;;;;;5059672;28;20017;-69
2023/08/21 09:48:27;;;;;;;2.75;1.05;;;27.70;53.10;;;;;;5063261;28;20475;-69
2023/08/21 09:50:53;;;;;;;3.33;0.90;;;27.70;52.90;;;;;;5063717;28;20029;-68
2023/08/21 09:53:22;;;;;;;3.30;1.10;;;27.70;52.90;;;;;;5063058;28;20032;-67
2023/08/21 09:55:48;;;;;;;6.82;1.30;;;27.80;52.70;;;;;;5062971;28;20016;-69
2023/08/21 09:58:15;;;;;;;3.55;1.10;;;27.60;52.40;;;;;;5065082;28;20460;-68
2023/08/21 10:00:42;;;;;;;3.80;1.17;;;27.50;52.60;;;;;;5062862;28;20093;-69
2023/08/21 10:03:10;;;;;;;3.85;1.27;;;27.50;53.10;;;;;;5063177;28;20040;-67
2023/08/21 10:05:37;;;;;;;3.15;1.20;;;27.50;53.70;;;;;;5061253;28;20021;-69
2023/08/21 10:08:05;;;;;;;2.72;0.98;;;27.60;53.60;;;;;;5054337;28;20024;-69
2023/08/21 10:10:36;;;;;;;2.25;0.80;;;27.70;53.60;;;;;;5061130;28;20234;-68
2023/08/21 10:13:03;;;;;;;4.53;1.10;;;27.70;53.50;;;;;;5060555;28;20025;-69
2023/08/21 10:15:30;;;;;;;3.05;0.90;;;27.80;53.50;;;;;;5059037;28;20028;-69
2023/08/21 10:17:56;;;;;;;4.00;1.23;;;27.90;53.30;;;;;;5059706;28;20032;-69
2023/08/21 10:20:24;;;;;;;3.75;1.00;;;27.90;53.10;;;;;;5061442;28;20513;-70
2023/08/21 10:22:54;;;;;;;2.72;1.13;;;27.90;53.30;;;;;;5061853;28;20560;-70
2023/08/21 10:25:25;;;;;;;2.08;0.93;;;28.00;53.30;;;;;;5060031;28;20036;-70
2023/08/21 10:28:03;;;;;;;3.25;1.17;;;28.00;53.30;;;;;;5061978;28;20049;-70
2023/08/21 10:30:29;;;;;;;3.90;1.20;;;28.10;53.60;;;;;;5063140;28;20029;-70
2023/08/21 10:32:57;;;;;;;4.07;1.35;;;28.10;53.20;;;;;;5064614;28;20127;-69
2023/08/21 10:35:30;;;;;;;2.50;1.15;;;28.10;53.30;;;;;;5062273;28;20024;-69
2023/08/21 10:38:16;;;;;;;2.92;1.40;;;28.00;53.30;;;;;;5062727;28;20130;-69
2023/08/21 10:41:04;;;;;;;3.08;1.00;;;28.10;53.60;;;;;;5056450;28;20025;-69
2023/08/21 10:43:39;;;;;;;2.00;0.95;;;28.10;53.50;;;;;;5063272;28;20036;-69
2023/08/21 10:46:05;;;;;;;4.00;1.40;;;28.30;53.80;;;;;;5060741;28;20024;-69
2023/08/21 10:48:31;;;;;;;4.57;1.30;;;28.40;53.00;;;;;;5065414;28;20032;-69
2023/08/21 10:51:00;;;;;;;4.15;1.30;;;28.50;52.70;;;;;;5059184;28;20032;-70
2023/08/21 10:53:27;;;;;;;5.68;1.55;;;28.40;52.20;;;;;;5058271;28;20131;-68
2023/08/21 10:55:54;;;;;;;2.72;1.30;;;28.20;51.70;;;;;;5064420;28;20467;-70
2023/08/21 10:58:19;;;;;;;3.78;1.30;;;28.20;51.90;;;;;;5065274;28;20040;-69
2023/08/21 11:00:45;;;;;;;3.80;1.60;;;28.40;52.00;;;;;;5063214;28;20403;-70
2023/08/21 11:03:11;;;;;;;4.15;1.30;;;28.40;50.90;;;;;;5064232;28;20744;-68
2023/08/21 11:05:36;;;;;;;3.00;1.30;;;28.30;51.10;;;;;;5064147;28;20033;-70
2023/08/21 11:08:02;;;;;;;4.82;1.55;;;28.40;50.90;;;;;;5066405;28;20039;-69
2023/08/21 11:10:30;;;;;;;4.13;1.08;;;28.40;51.10;;;;;;5067282;28;20099;-68
2023/08/21 11:13:02;;;;;;;3.03;1.20;;;28.50;51.10;;;;;;5065639;28;20028;-69
2023/08/21 11:15:29;;;;;;;2.42;1.23;;;28.60;50.90;;;;;;5065769;28;20016;-70
2023/08/21 11:17:59;;;;;;;5.53;1.48;;;28.50;51.10;;;;;;5064087;28;20036;-70
2023/08/21 11:20:33;;;;;;;3.30;1.30;;;28.40;51.50;;;;;;5065277;28;20372;-68
2023/08/21 11:23:06;;;;;;;4.28;1.40;;;28.50;51.60;;;;;;5064923;28;20067;-69
2023/08/21 11:25:39;;;;;;;4.28;1.50;;;28.40;51.30;;;;;;5067241;28;20442;-69
2023/08/21 11:28:05;;;;;;;5.00;1.48;;;28.40;50.90;;;;;;5062812;28;20036;-70
2023/08/21 11:30:32;;;;;;;4.38;1.25;;;28.40;50.90;;;;;;5061591;28;20060;-70
2023/08/21 11:33:12;;;;;;;3.38;1.45;;;28.40;51.30;;;;;;5063793;28;20479;-69
2023/08/21 11:35:41;;;;;;;4.22;1.38;;;28.60;51.70;;;;;;5064785;28;20027;-68
2023/08/21 11:38:17;;;;;;;2.13;1.20;;;28.70;50.80;;;;;;5067755;28;20540;-68
2023/08/21 11:40:50;;;;;;;4.10;1.35;;;28.90;50.70;;;;;;5060672;28;20135;-68
2023/08/21 11:43:16;;;;;;;2.70;1.48;;;28.90;50.40;;;;;;5061453;28;20071;-69
2023/08/21 11:45:41;;;;;;;4.20;1.38;;;29.20;50.30;;;;;;5062873;28;20479;-70
2023/08/21 11:48:07;;;;;;;3.45;1.00;;;29.30;50.20;;;;;;5062749;28;20631;-69
2023/08/21 11:50:33;;;;;;;2.13;0.93;;;29.50;49.90;;;;;;5058818;28;20033;-69
2023/08/21 11:52:58;;;;;;;3.28;1.30;;;29.60;49.90;;;;;;5066832;28;20060;-70
2023/08/21 11:55:24;;;;;;;2.67;1.00;;;29.70;49.30;;;;;;5062534;28;20032;-67
2023/08/21 11:57:51;;;;;;;2.25;1.10;;;29.80;49.00;;;;;;5063425;28;20085;-68
2023/08/21 12:00:22;;;;;;;2.28;1.30;;;29.90;48.50;;;;;;5064166;28;20376;-70
2023/08/21 12:02:56;;;;;;;3.20;1.30;;;29.90;48.30;;;;;;5060080;28;20040;-70
2023/08/21 12:05:22;;;;;;;3.67;1.30;;;30.10;48.40;;;;;;5064460;28;20031;-68
2023/08/21 12:07:48;;;;;;;2.10;1.00;;;30.20;48.20;;;;;;5064576;28;20117;-70
2023/08/21 12:10:14;;;;;;;2.38;1.00;;;30.30;48.00;;;;;;5064027;28;20048;-70
2023/08/21 12:12:39;;;;;;;2.50;0.90;;;30.40;47.80;;;;;;5063149;28;20071;-69
2023/08/21 12:15:06;;;;;;;1.95;1.00;;;30.40;47.90;;;;;;5062588;28;20024;-68
2023/08/21 12:17:31;;;;;;;2.72;1.10;;;30.40;47.70;;;;;;5064124;28;20352;-68
2023/08/21 12:19:57;;;;;;;1.45;0.80;;;30.50;47.20;;;;;;5062347;28;20032;-68
2023/08/21 12:22:22;;;;;;;1.77;0.80;;;30.50;46.90;;;;;;5060630;28;20044;-70
2023/08/21 12:24:48;;;;;;;2.78;0.95;;;30.70;46.60;;;;;;5062802;28;20039;-68
2023/08/21 12:27:13;;;;;;;2.65;1.02;;;30.80;46.60;;;;;;5062655;28;20496;-70
2023/08/21 12:29:39;;;;;;;2.47;1.05;;;30.80;45.80;;;;;;5062815;28;20028;-69
2023/08/21 12:32:05;;;;;;;1.77;0.77;;;30.90;45.50;;;;;;5062148;28;20036;-71
2023/08/21 12:34:30;;;;;;;2.42;1.00;;;30.90;45.20;;;;;;5064689;28;20025;-70
2023/08/21 12:36:56;;;;;;;2.83;1.25;;;31.00;45.20;;;;;;5064512;28;20079;-69
2023/08/21 12:39:22;;;;;;;2.40;0.98;;;30.70;44.20;;;;;;5060567;28;20062;-69
2023/08/21 12:41:48;;;;;;;1.98;1.00;;;30.50;44.80;;;;;;5063420;28;20032;-69
2023/08/21 12:44:14;;;;;;;3.75;1.10;;;30.60;45.10;;;;;;5063383;28;20028;-68